createdAt,value
2022-09-11T00:04:36.986Z,14.98
2022-09-11T00:09:39.547Z,14.57
2022-09-11T00:14:42.114Z,14.07
2022-09-11T00:19:44.662Z,14.07
2022-09-11T00:24:47.555Z,14.23
2022-09-11T00:29:50.451Z,13.70
2022-09-11T00:34:52.998Z,13.95
2022-09-11T00:39:55.728Z,13.95
2022-09-11T00:45:02.324Z,14.48
2022-09-11T00:50:14.244Z,15.02
2022-09-11T00:55:20.310Z,13.65
2022-09-11T01:00:23.198Z,14.52
2022-09-11T01:05:29.134Z,15.00
2022-09-11T01:11:06.048Z,13.85
2022-09-11T01:16:20.436Z,13.80
2022-09-11T01:21:34.539Z,13.77
2022-09-11T01:26:49.349Z,14.02
2022-09-11T01:32:03.929Z,13.90
2022-09-11T01:37:36.014Z,13.82
2022-09-11T01:42:43.403Z,14.77
2022-09-11T01:47:49.592Z,13.68
2022-09-11T01:52:58.326Z,14.63
2022-09-11T01:58:21.243Z,14.98
2022-09-11T02:03:45.349Z,13.38
2022-09-11T02:08:54.877Z,14.43
2022-09-11T02:14:07.289Z,14.88
2022-09-11T02:19:33.785Z,14.57
2022-09-11T02:24:36.396Z,15.27
2022-09-11T02:29:39.582Z,14.52
2022-09-11T02:34:45.701Z,13.80
2022-09-11T02:39:54.643Z,14.93
2022-09-11T02:44:57.167Z,15.02
2022-09-11T02:50:22.142Z,14.45
2022-09-11T02:55:50.077Z,15.07
2022-09-11T03:00:55.637Z,14.63
2022-09-11T03:05:58.459Z,14.35
2022-09-11T03:11:01.779Z,14.48
2022-09-11T03:16:07.921Z,13.80
2022-09-11T03:21:11.478Z,14.88
2022-09-11T03:26:14.333Z,14.45
2022-09-11T03:31:17.574Z,14.88
2022-09-11T03:36:21.168Z,13.57
2022-09-11T03:41:23.860Z,15.05
2022-09-11T03:46:26.504Z,14.20
2022-09-11T03:51:29.159Z,14.52
2022-09-11T03:56:32.611Z,13.75
2022-09-11T04:01:35.808Z,13.88
2022-09-11T04:06:38.521Z,13.68
2022-09-11T04:11:42.177Z,13.27
2022-09-11T04:16:54.020Z,13.32
2022-09-11T04:21:57.141Z,12.20
2022-09-11T04:27:03.409Z,13.00
2022-09-11T04:32:07.206Z,12.50
2022-09-11T04:37:11.904Z,13.10
2022-09-11T04:42:16.048Z,12.23
2022-09-11T04:47:21.111Z,11.55
2022-09-11T04:52:25.288Z,11.30
2022-09-11T04:57:31.288Z,11.10
2022-09-11T05:02:36.297Z,9.27
2022-09-11T05:07:40.173Z,8.90
2022-09-11T05:12:44.617Z,7.88
2022-09-11T05:17:48.511Z,8.60
2022-09-11T05:22:54.260Z,7.70
2022-09-11T05:27:57.182Z,6.80
2022-09-11T05:33:00.388Z,6.63
2022-09-11T05:38:03.302Z,6.57
2022-09-11T05:43:06.368Z,6.80
2022-09-11T05:48:09.802Z,6.68
2022-09-11T05:53:16.061Z,6.70
2022-09-11T05:58:19.915Z,6.85
2022-09-11T06:03:23.184Z,5.97
2022-09-11T06:08:25.848Z,5.20
2022-09-11T06:13:31.893Z,5.35
2022-09-11T06:18:36.877Z,5.63
2022-09-11T06:23:42.366Z,5.68
2022-09-11T06:28:48.046Z,4.97
2022-09-11T06:33:52.011Z,4.43
2022-09-11T06:38:56.942Z,4.53
2022-09-11T06:44:01.769Z,4.30
2022-09-11T06:49:06.936Z,3.97
2022-09-11T06:54:29.556Z,4.20
2022-09-11T06:59:33.621Z,3.40
2022-09-11T07:04:36.468Z,3.45
2022-09-11T07:09:39.254Z,3.10
2022-09-11T07:14:42.642Z,3.42
2022-09-11T07:19:50.997Z,2.90
2022-09-11T07:24:54.836Z,2.53
2022-09-11T07:29:58.259Z,2.50
2022-09-11T07:35:02.679Z,3.03
2022-09-11T07:40:06.030Z,3.38
2022-09-11T07:45:10.324Z,3.15
2022-09-11T07:50:13.793Z,3.35
2022-09-11T07:55:19.086Z,3.13
2022-09-11T08:00:22.387Z,3.08
2022-09-11T08:05:33.677Z,2.92
2022-09-11T08:10:41.027Z,3.30
2022-09-11T08:15:51.410Z,3.88
2022-09-11T08:21:04.642Z,3.03
2022-09-11T08:26:12.736Z,3.00
2022-09-11T08:31:20.685Z,2.60
2022-09-11T08:36:25.600Z,2.55
2022-09-11T08:41:53.573Z,2.90
2022-09-11T08:47:08.319Z,2.47
2022-09-11T08:52:15.617Z,2.85
2022-09-11T08:57:40.927Z,2.47
2022-09-11T09:03:03.248Z,2.25
2022-09-11T09:08:33.926Z,2.22
2022-09-11T09:14:23.096Z,2.30
2022-09-11T09:19:39.548Z,1.95
2022-09-11T09:24:48.748Z,2.15
2022-09-11T09:29:55.870Z,2.03
2022-09-11T09:35:03.050Z,2.38
2022-09-11T09:40:11.113Z,2.03
2022-09-11T09:45:57.112Z,2.08
2022-09-11T09:50:59.706Z,1.90
2022-09-11T09:56:05.382Z,2.42
2022-09-11T10:01:46.175Z,2.30
2022-09-11T10:06:59.582Z,1.90
2022-09-11T10:12:09.224Z,1.63
2022-09-11T10:17:24.499Z,1.80
2022-09-11T10:22:32.402Z,1.90
2022-09-11T10:27:45.279Z,2.00
2022-09-11T10:32:47.863Z,2.05
2022-09-11T10:38:03.202Z,2.05
2022-09-11T10:43:08.270Z,1.67
2022-09-11T10:48:23.602Z,2.13
2022-09-11T10:53:26.425Z,1.80
2022-09-11T10:58:34.393Z,2.35
2022-09-11T11:03:37.708Z,1.90
2022-09-11T11:09:11.178Z,1.70
2022-09-11T11:14:41.933Z,2.08
2022-09-11T11:20:13.902Z,2.08
2022-09-11T11:25:17.689Z,1.80
2022-09-11T11:30:24.132Z,2.08
2022-09-11T11:35:52.403Z,1.73
2022-09-11T11:41:03.475Z,2.00
2022-09-11T11:46:19.875Z,1.90
2022-09-11T11:51:28.140Z,2.45
2022-09-11T11:56:59.914Z,2.33
2022-09-11T12:02:11.768Z,1.77
2022-09-11T12:07:24.339Z,2.50
2022-09-11T12:12:31.515Z,2.17
2022-09-11T12:17:36.484Z,1.77
2022-09-11T12:22:41.866Z,1.80
2022-09-11T12:27:45.511Z,1.90
2022-09-11T12:32:51.845Z,2.17
2022-09-11T12:38:00.229Z,1.90
2022-09-11T12:43:29.565Z,1.60
2022-09-11T12:48:40.611Z,1.90
2022-09-11T12:53:48.089Z,2.10
2022-09-11T12:59:07.744Z,2.00
2022-09-11T13:04:10.211Z,1.90
2022-09-11T13:09:28.689Z,1.60
2022-09-11T13:14:31.167Z,1.50
2022-09-11T13:19:39.326Z,2.08
2022-09-11T13:24:41.913Z,1.90
2022-09-11T13:29:48.513Z,1.85
2022-09-11T13:34:58.833Z,2.47
2022-09-11T13:40:04.298Z,2.38
2022-09-11T13:45:08.068Z,2.17
2022-09-11T13:50:13.813Z,1.83
2022-09-11T13:55:20.567Z,1.92
2022-09-11T14:00:42.192Z,2.35
2022-09-11T14:06:11.980Z,2.10
2022-09-11T14:11:24.396Z,3.63
2022-09-11T14:16:32.147Z,3.65
2022-09-11T14:21:40.472Z,3.40
2022-09-11T14:26:43.066Z,2.78
2022-09-11T14:31:45.891Z,2.30
2022-09-11T14:37:11.962Z,2.58
2022-09-11T14:42:21.780Z,2.30
2022-09-11T14:47:29.702Z,2.45
2022-09-11T14:52:32.551Z,2.10
2022-09-11T14:57:35.390Z,2.00
2022-09-11T15:02:37.961Z,2.40
2022-09-11T15:07:40.545Z,2.10
2022-09-11T15:12:43.150Z,2.33
2022-09-11T15:17:47.477Z,2.00
2022-09-11T15:22:50.272Z,1.95
2022-09-11T15:27:53.371Z,2.08
2022-09-11T15:32:56.028Z,2.30
2022-09-11T15:37:59.501Z,2.10
2022-09-11T15:43:02.211Z,2.63
2022-09-11T15:48:04.743Z,2.42
2022-09-11T15:53:07.618Z,3.00
2022-09-11T15:58:10.174Z,2.60
2022-09-11T16:03:12.934Z,2.65
2022-09-11T16:08:16.016Z,3.35
2022-09-11T16:13:18.984Z,3.70
2022-09-11T16:18:21.542Z,4.03
2022-09-11T16:23:25.811Z,3.60
2022-09-11T16:28:28.473Z,4.05
2022-09-11T16:33:32.386Z,3.85
2022-09-11T16:38:37.598Z,3.90
2022-09-11T16:43:42.168Z,4.05
2022-09-11T16:48:45.342Z,4.30
2022-09-11T16:53:47.971Z,5.45
2022-09-11T16:58:51.061Z,4.55
2022-09-11T17:03:56.236Z,4.95
2022-09-11T17:09:01.514Z,4.10
2022-09-11T17:14:04.462Z,3.75
2022-09-11T17:19:07.794Z,3.78
2022-09-11T17:24:10.599Z,4.25
2022-09-11T17:29:13.998Z,4.15
2022-09-11T17:34:17.210Z,3.67
2022-09-11T17:39:19.788Z,3.10
2022-09-11T17:44:24.685Z,3.72
2022-09-11T17:49:27.230Z,3.92
2022-09-11T17:54:29.835Z,3.90
2022-09-11T17:59:32.950Z,4.00
2022-09-11T18:04:36.083Z,4.50
2022-09-11T18:09:38.607Z,4.53
2022-09-11T18:14:43.420Z,4.53
2022-09-11T18:19:46.365Z,4.40
2022-09-11T18:24:50.942Z,4.47
2022-09-11T18:29:54.646Z,4.93
2022-09-11T18:35:00.134Z,5.15
2022-09-11T18:40:03.278Z,5.20
2022-09-11T18:45:07.427Z,5.57
2022-09-11T18:50:10.277Z,5.40
2022-09-11T18:55:12.849Z,5.30
2022-09-11T19:00:17.922Z,4.93
2022-09-11T19:05:21.572Z,4.82
2022-09-11T19:10:24.745Z,6.00
2022-09-11T19:15:27.384Z,6.40
2022-09-11T19:20:30.171Z,6.13
2022-09-11T19:25:35.397Z,5.60
2022-09-11T19:30:41.272Z,5.00
2022-09-11T19:36:03.689Z,5.50
2022-09-11T19:41:12.863Z,5.43
2022-09-11T19:46:21.472Z,4.93
2022-09-11T19:51:27.655Z,5.30
2022-09-11T19:56:33.050Z,5.28
2022-09-11T20:01:36.184Z,4.30
2022-09-11T20:06:39.053Z,5.20
2022-09-11T20:11:42.086Z,4.88
2022-09-11T20:16:44.690Z,4.90
2022-09-11T20:21:47.231Z,5.28
2022-09-11T20:26:52.250Z,5.07
2022-09-11T20:31:56.010Z,4.97
2022-09-11T20:37:00.703Z,6.32
2022-09-11T20:42:04.352Z,6.28
2022-09-11T20:47:07.233Z,6.40
2022-09-11T20:52:11.335Z,7.20
2022-09-11T20:57:13.938Z,7.07
2022-09-11T21:02:17.735Z,7.20
2022-09-11T21:07:20.776Z,7.32
2022-09-11T21:12:23.504Z,7.10
2022-09-11T21:17:26.145Z,6.90
2022-09-11T21:22:28.732Z,7.30
2022-09-11T21:27:31.281Z,6.80
2022-09-11T21:32:33.867Z,6.75
2022-09-11T21:37:36.422Z,6.40
2022-09-11T21:42:39.366Z,5.97
2022-09-11T21:47:42.338Z,6.38
2022-09-11T21:52:44.858Z,6.72
2022-09-11T21:57:47.455Z,5.95
2022-09-11T22:02:49.993Z,6.30
2022-09-11T22:07:53.161Z,7.22
2022-09-11T22:12:55.906Z,7.47
2022-09-11T22:17:58.406Z,7.30
2022-09-11T22:23:00.990Z,7.20
2022-09-11T22:28:06.753Z,7.13
2022-09-11T22:33:10.233Z,6.93
2022-09-11T22:38:13.257Z,7.20
2022-09-11T22:43:16.822Z,6.45
2022-09-11T22:48:19.451Z,5.82
2022-09-11T22:53:22.063Z,5.53
2022-09-11T22:58:24.989Z,5.75
2022-09-11T23:03:27.556Z,5.60
2022-09-11T23:08:39.138Z,6.88
2022-09-11T23:13:43.653Z,5.80
2022-09-11T23:18:46.877Z,5.38
2022-09-11T23:23:54.253Z,5.55
2022-09-11T23:28:58.544Z,4.93
2022-09-11T23:34:03.438Z,5.90
2022-09-11T23:39:06.005Z,5.68
2022-09-11T23:44:09.962Z,6.53
2022-09-11T23:49:13.182Z,5.82
2022-09-11T23:54:16.139Z,6.40
2022-09-11T23:59:18.830Z,6.75
